Aetna, Tennessee
Current Conditions -  °F | °C
As of 10:35 AM on Friday 31 Oct 2014 (Local Time) from KMRC Reporting Station
Overcast Overcast  
Wind Chill: 11°   Ceiling: 4400
Heat Index: 11°   Visibility: 10mi
Dew Point: 11°   Wind: 3mph
Humidity: 100%   Direction: NA
Pressure: 30.02"   Gusts: NA
Location:  35.7514°N, 87.5392°W
Report Text: KMRC 311535Z AUTO VRB03KT 10SM SCT036 BKN044 OVC060 11/11 A3002 RMK
Loading
Personal Weather Stations






























Interactive Weather Map
Tropical Storm Tracking
New forecast layout! Learn more

10-Day Weather Forecast

Advertisements
Track Severe Weather on mobile